createdAt,value
2024-03-12T00:01:21.286Z,158142.59
2024-03-12T00:03:49.420Z,158139.91
2024-03-12T00:06:17.003Z,158129.28
2024-03-12T00:08:44.841Z,158131.94
2024-03-12T00:11:12.681Z,158123.94
2024-03-12T00:13:41.284Z,158134.56
2024-03-12T00:16:08.746Z,158126.59
2024-03-12T00:18:36.580Z,158111.97
2024-03-12T00:21:04.255Z,158118.63
2024-03-12T00:23:31.937Z,158123.94
2024-03-12T00:25:59.446Z,158129.28
2024-03-12T00:28:27.810Z,158125.28
2024-03-12T00:30:55.826Z,158119.94
2024-03-12T00:33:24.557Z,158121.25
2024-03-12T00:35:52.634Z,158114.59
2024-03-12T00:38:20.311Z,158110.66
2024-03-12T00:40:49.669Z,158094.69
2024-03-12T00:43:19.249Z,158108.00
2024-03-12T00:45:47.680Z,158106.63
2024-03-12T00:48:15.881Z,158102.66
2024-03-12T00:50:46.761Z,158106.63
2024-03-12T00:53:15.503Z,158102.66
2024-03-12T00:55:44.213Z,158093.31
2024-03-12T00:58:13.796Z,158089.38
2024-03-12T01:00:42.242Z,158085.34
2024-03-12T01:03:11.221Z,158076.06
2024-03-12T01:05:39.966Z,158080.06
2024-03-12T01:08:09.613Z,158085.34
2024-03-12T01:10:37.629Z,158086.69
2024-03-12T01:13:07.898Z,158078.69
2024-03-12T01:15:36.582Z,158057.41
2024-03-12T01:18:04.988Z,158068.09
2024-03-12T01:20:35.731Z,158070.72
2024-03-12T01:23:06.938Z,158052.16
2024-03-12T01:25:38.688Z,158049.44
2024-03-12T01:28:08.608Z,158046.81
2024-03-12T01:30:38.071Z,158041.47
2024-03-12T01:33:07.493Z,158062.75
2024-03-12T01:35:40.927Z,158033.50
2024-03-12T01:38:11.930Z,158050.78
2024-03-12T01:40:40.708Z,158020.19
2024-03-12T01:43:09.379Z,158034.81
2024-03-12T01:45:37.616Z,158044.13
2024-03-12T01:48:12.414Z,158030.88
2024-03-12T01:50:41.110Z,158041.47
2024-03-12T01:53:09.982Z,158017.56
2024-03-12T01:55:45.948Z,158024.22
2024-03-12T01:58:18.462Z,158021.53
2024-03-12T02:00:47.198Z,158006.91
2024-03-12T02:03:16.408Z,157944.41
2024-03-12T02:05:43.960Z,158001.56
2024-03-12T02:08:12.418Z,157978.97
2024-03-12T02:10:39.801Z,157982.97
2024-03-12T02:13:07.794Z,157957.69
2024-03-12T02:15:35.739Z,157985.63
2024-03-12T02:18:03.826Z,157976.34
2024-03-12T02:20:31.322Z,157984.31
2024-03-12T02:23:00.597Z,157985.63
2024-03-12T02:25:28.301Z,157975.00
2024-03-12T02:27:57.883Z,157997.59
2024-03-12T02:30:26.087Z,157998.94
2024-03-12T02:32:54.082Z,158005.59
2024-03-12T02:35:21.838Z,157997.59
2024-03-12T02:37:49.544Z,158014.88
2024-03-12T02:40:19.867Z,158005.59
2024-03-12T02:42:48.011Z,157994.91
2024-03-12T02:45:22.130Z,158012.22
2024-03-12T02:47:50.611Z,158024.22
2024-03-12T02:50:19.643Z,158026.84
2024-03-12T02:52:47.509Z,158034.81
2024-03-12T02:55:15.588Z,158034.81
2024-03-12T02:57:43.559Z,158025.53
2024-03-12T03:00:15.582Z,158040.16
2024-03-12T03:02:44.420Z,158046.81
2024-03-12T03:05:12.534Z,158032.19
2024-03-12T03:07:41.973Z,158025.53
2024-03-12T03:10:12.118Z,158045.50
2024-03-12T03:12:41.144Z,158041.47
2024-03-12T03:15:13.488Z,158009.59
2024-03-12T03:17:44.585Z,158034.81
2024-03-12T03:20:13.708Z,158036.16
2024-03-12T03:22:41.908Z,158022.84
2024-03-12T03:25:13.467Z,158030.88
2024-03-12T03:27:41.777Z,158038.84
2024-03-12T03:30:11.421Z,158006.91
2024-03-12T03:32:40.693Z,158038.84
2024-03-12T03:35:08.459Z,158020.19
2024-03-12T03:37:41.789Z,158028.19
2024-03-12T03:40:12.704Z,158038.84
2024-03-12T03:42:43.132Z,158037.47
2024-03-12T03:45:10.960Z,158038.84
2024-03-12T03:47:38.885Z,158041.47
2024-03-12T03:50:09.219Z,158038.84
2024-03-12T03:52:40.534Z,158046.81
2024-03-12T03:55:08.582Z,158034.81
2024-03-12T03:57:36.770Z,158044.13
2024-03-12T04:00:14.012Z,158042.81
2024-03-12T04:02:43.091Z,158040.16
2024-03-12T04:05:12.320Z,157980.28
2024-03-12T04:07:42.172Z,158021.53
2024-03-12T04:10:13.570Z,158028.19
2024-03-12T04:12:48.636Z,158034.81
2024-03-12T04:15:16.350Z,158028.19
2024-03-12T04:17:45.877Z,157956.38
2024-03-12T04:20:14.057Z,158021.53
2024-03-12T04:22:44.974Z,158024.22
2024-03-12T04:25:13.978Z,158020.19
2024-03-12T04:27:41.730Z,158017.56
2024-03-12T04:30:11.014Z,157990.97
2024-03-12T04:32:39.326Z,158017.56
2024-03-12T04:35:07.161Z,158014.88
2024-03-12T04:37:34.937Z,158010.91
2024-03-12T04:40:08.243Z,158004.25
2024-03-12T04:42:38.280Z,158009.59
2024-03-12T04:45:06.744Z,158001.56
2024-03-12T04:47:36.727Z,157994.91
2024-03-12T04:50:05.628Z,157947.09
2024-03-12T04:52:35.193Z,157982.97
2024-03-12T04:55:03.064Z,157985.63
2024-03-12T04:57:30.841Z,157964.34
2024-03-12T04:59:58.274Z,157992.28
2024-03-12T05:02:26.042Z,158001.56
2024-03-12T05:04:53.394Z,158001.56
2024-03-12T05:07:21.417Z,157998.94
2024-03-12T05:09:48.968Z,158004.25
2024-03-12T05:12:16.623Z,157998.94
2024-03-12T05:14:44.926Z,158000.25
2024-03-12T05:17:12.520Z,157986.94
2024-03-12T05:19:39.835Z,157996.28
2024-03-12T05:22:08.435Z,158000.25
2024-03-12T05:24:36.971Z,157984.31
2024-03-12T05:27:05.261Z,158004.25
2024-03-12T05:29:43.563Z,157989.63
2024-03-12T05:32:25.132Z,157985.63
2024-03-12T05:35:00.483Z,157988.28
2024-03-12T05:37:42.010Z,157990.97
2024-03-12T05:40:16.220Z,157990.97
2024-03-12T05:43:05.664Z,157961.72
2024-03-12T05:45:51.692Z,157973.66
2024-03-12T05:48:19.532Z,157953.75
2024-03-12T05:50:46.864Z,157977.66
2024-03-12T05:53:14.847Z,157982.97
2024-03-12T05:55:42.970Z,157980.28
2024-03-12T05:58:13.851Z,158000.25
2024-03-12T06:00:41.369Z,158004.25
2024-03-12T06:03:09.078Z,157976.34
2024-03-12T06:05:36.941Z,158016.19
2024-03-12T06:08:06.036Z,158030.88
2024-03-12T06:10:33.442Z,158020.19
2024-03-12T06:13:01.279Z,158022.84
2024-03-12T06:15:28.800Z,158013.56
2024-03-12T06:17:56.634Z,158041.47
2024-03-12T06:20:24.127Z,158014.88
2024-03-12T06:22:51.768Z,158017.56
2024-03-12T06:25:19.431Z,158036.16
2024-03-12T06:27:47.362Z,158032.19
2024-03-12T06:30:16.282Z,158020.19
2024-03-12T06:32:43.720Z,158029.50
2024-03-12T06:35:11.663Z,158016.19
2024-03-12T06:37:39.504Z,158025.53
2024-03-12T06:40:08.195Z,158044.13
2024-03-12T06:42:36.866Z,158036.16
2024-03-12T06:45:04.847Z,158044.13
2024-03-12T06:47:38.539Z,158024.22
2024-03-12T06:50:09.581Z,158034.81
2024-03-12T06:52:37.613Z,158037.47
2024-03-12T06:55:06.444Z,158036.16
2024-03-12T06:57:35.596Z,158028.19
2024-03-12T07:00:11.178Z,158018.88
2024-03-12T07:02:39.732Z,158036.16
2024-03-12T07:05:11.033Z,158041.47
2024-03-12T07:07:45.251Z,158042.81
2024-03-12T07:10:13.555Z,158040.16
2024-03-12T07:12:41.142Z,158046.81
2024-03-12T07:15:09.268Z,158056.09
2024-03-12T07:17:36.675Z,158041.47
2024-03-12T07:20:11.710Z,158049.44
2024-03-12T07:22:46.414Z,158060.13
2024-03-12T07:25:14.806Z,158065.41
2024-03-12T07:27:43.795Z,158064.06
2024-03-12T07:30:12.232Z,158086.69
2024-03-12T07:32:40.189Z,158088.06
2024-03-12T07:35:08.300Z,158097.34
2024-03-12T07:37:45.316Z,158105.31
2024-03-12T07:40:14.145Z,158121.25
2024-03-12T07:42:45.396Z,158135.94
2024-03-12T07:45:16.041Z,158141.28
2024-03-12T07:47:43.786Z,158141.28
2024-03-12T07:50:15.223Z,158151.94
2024-03-12T07:52:43.124Z,158146.59
2024-03-12T07:55:14.543Z,158159.91
2024-03-12T07:57:41.909Z,158162.56
2024-03-12T08:00:16.516Z,158150.63
2024-03-12T08:02:44.240Z,158150.63
2024-03-12T08:05:18.290Z,158158.59
2024-03-12T08:07:46.688Z,158149.25
2024-03-12T08:10:14.795Z,158158.59
2024-03-12T08:12:42.354Z,158155.91
2024-03-12T08:15:10.648Z,158169.22
2024-03-12T08:17:39.674Z,158167.88
2024-03-12T08:20:12.051Z,158178.56
2024-03-12T08:22:40.337Z,158170.53
2024-03-12T08:25:11.017Z,158165.25
2024-03-12T08:27:41.120Z,158161.25
2024-03-12T08:30:09.686Z,158158.59
2024-03-12T08:32:37.805Z,158146.59
2024-03-12T08:35:06.614Z,158161.25
2024-03-12T08:37:38.361Z,158161.25
2024-03-12T08:40:08.791Z,158174.53
2024-03-12T08:42:44.892Z,158187.84
2024-03-12T08:45:21.239Z,158167.88
2024-03-12T08:47:50.746Z,158169.22
2024-03-12T08:50:18.677Z,158175.88
2024-03-12T08:52:46.303Z,158181.19
2024-03-12T08:55:15.379Z,158169.22
2024-03-12T08:57:43.456Z,158197.16
2024-03-12T09:00:15.032Z,158191.81
2024-03-12T09:02:42.391Z,158214.47
2024-03-12T09:05:10.986Z,158214.47
2024-03-12T09:07:38.749Z,158205.13
2024-03-12T09:10:12.906Z,158213.09
2024-03-12T09:12:42.572Z,158209.16
2024-03-12T09:15:11.286Z,158209.16
2024-03-12T09:17:39.925Z,158229.09
2024-03-12T09:20:14.229Z,158234.44
2024-03-12T09:22:45.755Z,158258.38
2024-03-12T09:25:15.708Z,158233.06
2024-03-12T09:27:43.791Z,158217.13
2024-03-12T09:30:12.069Z,158222.44
2024-03-12T09:32:40.886Z,158225.09
2024-03-12T09:35:08.975Z,158226.41
2024-03-12T09:37:37.449Z,158227.78
2024-03-12T09:40:09.457Z,158233.06
2024-03-12T09:42:37.644Z,158239.72
2024-03-12T09:45:09.838Z,158250.41
2024-03-12T09:47:38.290Z,158254.34
2024-03-12T09:50:12.256Z,158241.03
2024-03-12T09:52:40.167Z,158278.34
2024-03-12T09:55:12.788Z,158279.66
2024-03-12T09:57:46.229Z,158282.31
2024-03-12T10:00:24.091Z,158270.38
2024-03-12T10:02:52.241Z,158275.66
2024-03-12T10:05:24.429Z,158286.31
2024-03-12T10:08:13.782Z,158288.97
2024-03-12T10:10:44.282Z,158296.94
2024-03-12T10:13:19.351Z,158307.59
2024-03-12T10:16:05.351Z,158302.28
2024-03-12T10:18:38.788Z,158300.94
2024-03-12T10:21:08.668Z,158308.94
2024-03-12T10:23:42.196Z,158316.91
2024-03-12T10:26:18.243Z,158334.25
2024-03-12T10:28:47.187Z,158328.91
2024-03-12T10:31:16.415Z,158326.25
2024-03-12T10:33:51.864Z,158342.22
2024-03-12T10:36:30.811Z,158352.84
2024-03-12T10:38:58.298Z,158358.19
2024-03-12T10:41:26.951Z,158347.56
2024-03-12T10:44:08.236Z,158375.50
2024-03-12T10:46:36.975Z,158388.81
2024-03-12T10:49:09.251Z,158404.78
2024-03-12T10:51:40.625Z,158422.06
2024-03-12T10:54:17.698Z,158420.75
2024-03-12T10:56:49.390Z,158424.75
2024-03-12T10:59:19.628Z,158403.47
2024-03-12T11:01:49.604Z,158418.09
2024-03-12T11:04:17.632Z,158420.75
2024-03-12T11:06:49.594Z,158412.75
2024-03-12T11:09:23.049Z,158430.03
2024-03-12T11:11:51.143Z,158427.41
2024-03-12T11:14:18.834Z,158407.44
2024-03-12T11:16:47.440Z,158364.84
2024-03-12T11:19:24.630Z,158374.13
2024-03-12T11:21:53.145Z,158355.53
2024-03-12T11:24:49.463Z,158366.16
2024-03-12T11:27:28.610Z,158351.50
2024-03-12T11:30:19.501Z,158358.19
2024-03-12T11:32:52.576Z,158352.84
2024-03-12T11:35:22.794Z,158382.16
2024-03-12T11:38:00.309Z,158332.91
2024-03-12T11:40:43.286Z,158346.19
2024-03-12T11:43:14.959Z,158335.56
2024-03-12T11:45:49.803Z,158348.88
2024-03-12T11:48:33.347Z,158340.91
2024-03-12T11:51:01.672Z,158323.56
2024-03-12T11:53:34.576Z,158322.25
2024-03-12T11:56:09.673Z,158315.59
2024-03-12T11:58:45.979Z,158307.59
2024-03-12T12:01:41.465Z,158306.28
2024-03-12T12:04:12.157Z,158300.94
2024-03-12T12:06:39.914Z,158287.63
2024-03-12T12:09:12.332Z,158294.31
2024-03-12T12:11:40.845Z,158291.66
2024-03-12T12:14:11.071Z,158304.97
2024-03-12T12:16:41.642Z,158298.31
2024-03-12T12:19:15.913Z,158311.63
2024-03-12T12:21:46.826Z,158322.25
2024-03-12T12:24:15.205Z,158322.25
2024-03-12T12:26:45.845Z,158334.25
2024-03-12T12:29:14.948Z,158354.22
2024-03-12T12:31:43.488Z,158367.47
2024-03-12T12:34:12.422Z,158379.47
2024-03-12T12:36:45.055Z,158382.16
2024-03-12T12:39:14.581Z,158383.50
2024-03-12T12:41:46.894Z,158394.13
2024-03-12T12:44:22.872Z,158394.13
2024-03-12T12:46:53.912Z,158400.78
2024-03-12T12:49:23.777Z,158392.78
2024-03-12T12:51:51.979Z,158387.44
2024-03-12T12:54:23.713Z,158386.13
2024-03-12T12:56:52.164Z,158388.81
2024-03-12T12:59:24.858Z,158400.78
2024-03-12T13:01:53.487Z,158402.09
2024-03-12T13:04:26.379Z,158412.75
2024-03-12T13:06:56.054Z,158412.75
2024-03-12T13:09:33.681Z,158415.41
2024-03-12T13:12:02.688Z,158404.78
2024-03-12T13:14:31.200Z,158408.75
2024-03-12T13:17:00.875Z,158444.69
2024-03-12T13:19:29.316Z,158446.06
2024-03-12T13:21:59.370Z,158460.69
2024-03-12T13:24:27.138Z,158448.72
2024-03-12T13:26:54.994Z,158484.66
2024-03-12T13:29:22.361Z,158493.94
2024-03-12T13:31:50.206Z,158485.97
2024-03-12T13:34:17.701Z,158470.00
2024-03-12T13:36:45.919Z,158459.38
2024-03-12T13:39:16.483Z,158450.03
2024-03-12T13:41:44.543Z,158423.38
2024-03-12T13:44:13.222Z,158423.38
2024-03-12T13:46:44.287Z,158436.72
2024-03-12T13:49:18.767Z,158434.06
2024-03-12T13:51:47.941Z,158436.72
2024-03-12T13:54:16.267Z,158454.03
2024-03-12T13:56:46.442Z,158455.38
2024-03-12T13:59:15.439Z,158440.72
2024-03-12T14:01:43.949Z,158444.69
2024-03-12T14:04:12.974Z,158459.38
2024-03-12T14:06:41.562Z,158475.34
2024-03-12T14:09:13.118Z,158470.00
2024-03-12T14:11:41.424Z,158466.00
2024-03-12T14:14:12.535Z,158468.69
2024-03-12T14:16:40.806Z,158471.31
2024-03-12T14:19:08.307Z,158474.03
2024-03-12T14:21:36.932Z,158478.00
2024-03-12T14:24:04.938Z,158484.66
2024-03-12T14:26:33.119Z,158464.66
2024-03-12T14:29:00.315Z,158503.31
2024-03-12T14:31:28.507Z,158507.28
2024-03-12T14:33:56.133Z,158472.66
2024-03-12T14:36:23.960Z,158493.94
2024-03-12T14:38:54.615Z,158485.97
2024-03-12T14:41:24.258Z,158493.94
2024-03-12T14:43:51.741Z,158466.00
2024-03-12T14:46:20.142Z,158451.34
2024-03-12T14:48:48.159Z,158459.38
2024-03-12T14:51:16.013Z,158468.69
2024-03-12T14:53:43.468Z,158475.34
2024-03-12T14:56:11.392Z,158475.34
2024-03-12T14:58:38.788Z,158459.38
2024-03-12T15:01:07.604Z,158452.72
2024-03-12T15:03:36.041Z,158439.41
2024-03-12T15:06:04.506Z,158430.03
2024-03-12T15:08:31.807Z,158434.06
2024-03-12T15:10:59.821Z,158432.75
2024-03-12T15:13:27.274Z,158423.38
2024-03-12T15:15:55.982Z,158407.44
2024-03-12T15:18:24.711Z,158403.47
2024-03-12T15:20:53.405Z,158403.47
2024-03-12T15:23:20.805Z,158398.13
2024-03-12T15:25:48.619Z,158384.81
2024-03-12T15:28:16.572Z,158379.47
2024-03-12T15:30:45.241Z,158364.84
2024-03-12T15:33:13.671Z,158376.81
2024-03-12T15:35:41.435Z,158368.84
2024-03-12T15:38:08.957Z,158356.84
2024-03-12T15:40:36.866Z,158360.88
2024-03-12T15:43:06.999Z,158344.84
2024-03-12T15:45:34.806Z,158331.53
2024-03-12T15:48:02.251Z,158316.91
2024-03-12T15:50:30.217Z,158332.91
2024-03-12T15:52:58.406Z,158315.59
2024-03-12T15:55:27.519Z,158324.88
2024-03-12T15:57:56.052Z,158328.91
2024-03-12T16:00:24.099Z,158316.91
2024-03-12T16:02:55.710Z,158314.25
2024-03-12T16:05:24.020Z,158307.59
2024-03-12T16:07:52.759Z,158299.63
2024-03-12T16:10:22.032Z,158282.31
2024-03-12T16:12:49.779Z,158283.69
2024-03-12T16:15:19.505Z,158282.31
2024-03-12T16:17:47.175Z,158277.03
2024-03-12T16:20:15.981Z,158270.38
2024-03-12T16:22:44.102Z,158246.38
2024-03-12T16:25:12.174Z,158243.75
2024-03-12T16:27:41.037Z,158231.75
2024-03-12T16:30:11.864Z,158241.03
2024-03-12T16:32:41.501Z,158223.78
2024-03-12T16:35:09.750Z,158241.03
2024-03-12T16:37:40.647Z,158235.75
2024-03-12T16:40:09.544Z,158226.41
2024-03-12T16:42:37.521Z,158221.13
2024-03-12T16:45:07.153Z,158227.78
2024-03-12T16:47:35.139Z,158225.09
2024-03-12T16:50:09.801Z,158225.09
2024-03-12T16:52:38.820Z,158223.78
2024-03-12T16:55:08.454Z,158185.22
2024-03-12T16:57:36.202Z,158217.13
2024-03-12T17:00:06.828Z,158223.78
2024-03-12T17:02:43.520Z,158218.44
2024-03-12T17:05:23.041Z,158207.81
2024-03-12T17:07:52.044Z,158222.44
2024-03-12T17:10:23.257Z,158223.78
2024-03-12T17:12:51.438Z,158223.78
2024-03-12T17:15:22.097Z,158229.09
2024-03-12T17:17:50.870Z,158225.09
2024-03-12T17:20:18.897Z,158225.09
2024-03-12T17:22:47.996Z,158206.50
2024-03-12T17:25:18.561Z,158213.09
2024-03-12T17:27:49.061Z,158205.13
2024-03-12T17:30:17.182Z,158219.75
2024-03-12T17:32:47.305Z,158209.16
2024-03-12T17:35:16.337Z,158206.50
2024-03-12T17:37:45.065Z,158202.47
2024-03-12T17:40:17.060Z,158203.81
2024-03-12T17:42:48.728Z,158209.16
2024-03-12T17:45:17.065Z,158187.84
2024-03-12T17:47:50.811Z,158207.81
2024-03-12T17:50:22.557Z,158213.09
2024-03-12T17:52:51.623Z,158207.81
2024-03-12T17:55:20.745Z,158221.13
2024-03-12T17:57:49.306Z,158221.13
2024-03-12T18:00:19.220Z,158221.13
2024-03-12T18:02:47.544Z,158221.13
2024-03-12T18:05:20.875Z,158205.13
2024-03-12T18:07:49.772Z,158222.44
2024-03-12T18:10:19.607Z,158225.09
2024-03-12T18:12:48.772Z,158229.09
2024-03-12T18:15:17.857Z,158227.78
2024-03-12T18:17:46.384Z,158235.75
2024-03-12T18:20:35.601Z,158247.69
2024-03-12T18:23:02.980Z,158243.75
2024-03-12T18:25:31.826Z,158241.03
2024-03-12T18:27:59.399Z,158238.41
2024-03-12T18:30:28.323Z,158243.75
2024-03-12T18:32:56.087Z,158241.03
2024-03-12T18:35:25.245Z,158234.44
2024-03-12T18:37:52.842Z,158239.72
2024-03-12T18:40:23.614Z,158235.75
2024-03-12T18:42:52.442Z,158227.78
2024-03-12T18:45:21.528Z,158230.44
2024-03-12T18:47:49.914Z,158227.78
2024-03-12T18:50:19.311Z,158235.75
2024-03-12T18:52:47.542Z,158222.44
2024-03-12T18:55:18.471Z,158233.06
2024-03-12T18:57:47.319Z,158233.06
2024-03-12T19:00:19.883Z,158227.78
2024-03-12T19:02:49.044Z,158203.81
2024-03-12T19:05:18.386Z,158186.53
2024-03-12T19:07:47.488Z,158181.19
2024-03-12T19:10:17.085Z,158165.25
2024-03-12T19:12:45.840Z,158154.59
2024-03-12T19:15:16.379Z,158141.28
2024-03-12T19:17:45.822Z,158102.66
2024-03-12T19:20:19.590Z,158126.59
2024-03-12T19:22:50.844Z,158115.97
2024-03-12T19:25:19.976Z,158115.97
2024-03-12T19:27:49.827Z,158109.31
2024-03-12T19:30:23.172Z,158108.00
2024-03-12T19:32:54.107Z,158110.66
2024-03-12T19:35:22.693Z,158094.69
2024-03-12T19:37:50.565Z,158105.31
2024-03-12T19:40:21.292Z,158102.66
2024-03-12T19:42:53.201Z,158104.00
2024-03-12T19:45:29.010Z,158102.66
2024-03-12T19:47:57.967Z,158110.66
2024-03-12T19:50:26.819Z,158102.66
2024-03-12T19:52:56.592Z,158098.66
2024-03-12T19:55:26.231Z,158092.00
2024-03-12T19:57:57.804Z,158089.38
2024-03-12T20:00:34.422Z,158086.69
2024-03-12T20:03:27.890Z,158085.34
2024-03-12T20:05:58.216Z,158073.41
2024-03-12T20:08:27.242Z,158080.06
2024-03-12T20:10:57.448Z,158074.75
2024-03-12T20:13:25.244Z,158074.75
2024-03-12T20:15:53.255Z,158081.38
2024-03-12T20:18:21.033Z,158074.75
2024-03-12T20:20:48.751Z,158065.41
2024-03-12T20:23:18.182Z,158058.78
2024-03-12T20:25:47.418Z,158056.09
2024-03-12T20:28:16.104Z,158054.78
2024-03-12T20:30:44.317Z,158046.81
2024-03-12T20:33:14.684Z,158034.81
2024-03-12T20:35:44.549Z,158014.88
2024-03-12T20:38:12.698Z,158012.22
2024-03-12T20:40:41.342Z,158014.88
2024-03-12T20:43:09.633Z,157998.94
2024-03-12T20:45:40.317Z,158008.22
2024-03-12T20:48:11.981Z,158013.56
2024-03-12T20:50:41.223Z,158014.88
2024-03-12T20:53:08.947Z,158016.19
2024-03-12T20:55:45.301Z,157997.59
2024-03-12T20:58:15.028Z,158010.91
2024-03-12T21:00:43.361Z,158009.59
2024-03-12T21:03:11.133Z,158001.56
2024-03-12T21:05:40.433Z,158001.56
2024-03-12T21:08:08.487Z,157993.59
2024-03-12T21:10:37.957Z,157977.66
2024-03-12T21:13:05.412Z,157988.28
2024-03-12T21:15:33.342Z,157972.31
2024-03-12T21:18:01.815Z,157965.69
2024-03-12T21:20:33.836Z,157969.69
2024-03-12T21:23:04.029Z,157973.66
2024-03-12T21:25:33.337Z,157964.34
2024-03-12T21:28:00.744Z,157972.31
2024-03-12T21:30:29.356Z,157956.38
2024-03-12T21:32:57.170Z,157975.00
2024-03-12T21:35:25.300Z,157982.97
2024-03-12T21:37:53.250Z,157985.63
2024-03-12T21:40:21.260Z,157971.00
2024-03-12T21:42:48.771Z,157980.28
2024-03-12T21:45:19.468Z,157977.66
2024-03-12T21:47:48.794Z,157978.97
2024-03-12T21:50:17.819Z,157975.00
2024-03-12T21:52:46.643Z,157972.31
2024-03-12T21:55:15.693Z,157975.00
2024-03-12T21:57:45.118Z,157961.72
2024-03-12T22:00:20.624Z,157964.34
2024-03-12T22:02:50.002Z,157972.31
2024-03-12T22:05:21.351Z,157967.00
2024-03-12T22:07:51.035Z,157967.00
2024-03-12T22:10:19.341Z,157963.03
2024-03-12T22:12:48.431Z,157941.75
2024-03-12T22:15:20.745Z,157947.09
2024-03-12T22:17:52.413Z,157915.16
2024-03-12T22:20:23.839Z,157956.38
2024-03-12T22:22:52.097Z,157956.38
2024-03-12T22:25:27.505Z,157961.72
2024-03-12T22:27:58.354Z,157901.88
2024-03-12T22:30:29.698Z,157951.06
2024-03-12T22:32:58.344Z,157885.94
2024-03-12T22:35:27.518Z,157967.00
2024-03-12T22:37:59.701Z,157952.38
2024-03-12T22:40:28.587Z,157968.38
2024-03-12T22:42:57.356Z,157969.69
2024-03-12T22:45:26.117Z,157963.03
2024-03-12T22:47:54.446Z,157960.41
2024-03-12T22:50:23.959Z,157963.03
2024-03-12T22:52:55.542Z,157955.06
2024-03-12T22:55:27.518Z,157939.06
2024-03-12T22:57:56.924Z,157952.38
2024-03-12T23:00:29.599Z,157949.75
2024-03-12T23:03:02.603Z,157944.41
2024-03-12T23:05:36.554Z,157935.13
2024-03-12T23:08:07.926Z,157909.84
2024-03-12T23:10:45.489Z,157895.22
2024-03-12T23:13:17.743Z,157887.25
2024-03-12T23:15:46.115Z,157889.88
2024-03-12T23:18:13.603Z,157863.34
2024-03-12T23:20:42.069Z,157896.53
2024-03-12T23:23:09.260Z,157897.91
2024-03-12T23:25:37.698Z,157896.53
2024-03-12T23:28:05.697Z,157896.53
2024-03-12T23:30:37.246Z,157892.56
2024-03-12T23:33:04.961Z,157885.94
2024-03-12T23:35:34.243Z,157884.59
2024-03-12T23:38:03.307Z,157888.56
2024-03-12T23:40:31.131Z,157895.22
2024-03-12T23:42:58.576Z,157895.22
2024-03-12T23:45:27.807Z,157911.16
2024-03-12T23:47:55.308Z,157904.56
2024-03-12T23:50:23.042Z,157903.19
2024-03-12T23:52:50.377Z,157913.84
2024-03-12T23:55:17.972Z,157905.88
2024-03-12T23:57:45.565Z,157903.19
